Terminal Aerodrome Forecast
Issued by NWS

Home | Current Version | Previous Version | Text Only | Print | Product List | Glossary On
Versions: 1 2 3 4 5 6 7 8 9 10 11 12 13 14 15 16 17 18 19 20 21 22 23 24 25
000
FTUS45 KSLC 022138 AAA
TAFLGU
TAF AMD
KLGU 022138Z 0222/0318 35007KT P6SM VCSH SCT020 BKN050
     FM030000 33007KT 2SM -SHSN SCT009 BKN020
     FM030400 33005KT P6SM VCSH SCT020 BKN050
     FM031100 33007KT 1SM -SN SCT004 BKN010
     FM031700 34009KT P6SM VCSH SCT015 BKN060=

USA.gov is the U.S. government's official web portal to all federal, state and local government web resources and services.